Time;durP1;ratioP1;P1;durP2;ratioP2;P2;SDS_P1;SDS_P2;PMS_P1;PMS_P2;Temp;Humidity;BMP_temperature;BMP_pressure;BME280_temperature;BME280_humidity;BME280_pressure;Samples;Min_cycle;Max_cycle;Signal;HPM_P1;HPM_P2
2021/10/01 00:01:12;;;;;;;1.20;0.93;;;;;;;;;;5052674;28;20485;-74
2021/10/01 00:03:38;;;;;;;13.73;1.73;;;;;;;;;;5053461;28;20734;-74
2021/10/01 00:06:04;;;;;;;1.30;1.00;;;;;;;;;;5033877;28;20510;-74
2021/10/01 00:08:36;;;;;;;3.13;1.40;;;;;;;;;;5033860;28;20395;-74
2021/10/01 00:11:02;;;;;;;2.30;1.03;;;;;;;;;;5033022;28;20498;-74
2021/10/01 00:13:28;;;;;;;10.67;1.23;;;;;;;;;;5033801;28;20408;-74
2021/10/01 00:15:55;;;;;;;2.73;1.17;;;;;;;;;;5031932;28;20455;-73
2021/10/01 00:18:21;;;;;;;6.50;1.43;;;;;;;;;;5033788;28;20399;-73
2021/10/01 00:20:47;;;;;;;4.00;0.90;;;;;;;;;;5053353;28;20964;-73
2021/10/01 00:23:14;;;;;;;4.07;1.20;;;;;;;;;;5052952;28;20477;-73
2021/10/01 00:25:40;;;;;;;1.43;0.90;;;;;;;;;;5042539;28;20752;-73
2021/10/01 00:28:12;;;;;;;2.47;1.20;;;;;;;;;;5033740;28;20391;-73
2021/10/01 00:30:38;;;;;;;2.00;1.20;;;;;;;;;;5046999;28;20423;-74
2021/10/01 00:33:04;;;;;;;13.13;1.30;;;;;;;;;;5044324;28;20893;-74
2021/10/01 00:35:36;;;;;;;5.23;1.00;;;;;;;;;;5053376;28;20398;-74
2021/10/01 00:38:18;;;;;;;0.93;0.80;;;;;;;;;;5053657;28;20842;-73
2021/10/01 00:40:48;;;;;;;1.83;1.20;;;;;;;;;;5038195;28;20807;-73
2021/10/01 00:43:24;;;;;;;1.77;1.00;;;;;;;;;;5054338;28;20398;-74
2021/10/01 00:45:50;;;;;;;5.70;1.23;;;;;;;;;;5057521;28;20892;-73
2021/10/01 00:48:16;;;;;;;1.70;1.07;;;;;;;;;;5054918;28;20410;-73
2021/10/01 00:50:42;;;;;;;2.33;1.00;;;;;;;;;;5066176;28;20636;-74
2021/10/01 00:53:12;;;;;;;1.13;1.00;;;;;;;;;;5077585;28;20392;-74
2021/10/01 00:55:38;;;;;;;3.93;1.13;;;;;;;;;;5058620;28;20506;-74
2021/10/01 00:58:04;;;;;;;5.27;0.97;;;;;;;;;;5049895;28;20414;-73
2021/10/01 01:00:46;;;;;;;2.40;0.97;;;;;;;;;;5045547;28;20483;-74
2021/10/01 01:03:12;;;;;;;1.47;0.93;;;;;;;;;;5055346;28;20403;-73
2021/10/01 01:05:58;;;;;;;0.87;0.73;;;8.20;1.00;;;;;;5037423;28;20477;-74
2021/10/01 01:09:07;;;;;;;2.77;1.20;;;8.10;1.00;;;;;;5037104;28;20383;-73
2021/10/01 01:11:53;;;;;;;8.23;1.33;;;8.00;1.00;;;;;;5015174;28;20985;-73
2021/10/01 01:14:40;;;;;;;1.90;1.10;;;8.00;1.00;;;;;;5015264;28;20404;-74
2021/10/01 01:17:20;;;;;;;1.67;1.20;;;;;;;;;;5014990;28;20782;-73
2021/10/01 01:19:54;;;;;;;4.03;1.20;;;;;;;;;;5018689;28;20454;-73
2021/10/01 01:22:41;;;;;;;2.07;0.90;;;7.90;1.00;;;;;;5014982;28;20538;-74
2021/10/01 01:25:33;;;;;;;5.30;1.00;;;7.80;1.00;;;;;;5014588;28;20528;-74
2021/10/01 01:28:14;;;;;;;2.60;1.10;;;;;;;;;;5015072;28;20443;-74
2021/10/01 01:30:49;;;;;;;5.00;1.30;;;7.80;1.00;;;;;;5014032;28;20420;-73
2021/10/01 01:33:23;;;;;;;1.47;1.00;;;7.70;1.00;;;;;;5014547;28;20485;-73
2021/10/01 01:35:57;;;;;;;2.57;1.13;;;7.70;1.00;;;;;;5029838;28;20898;-73
2021/10/01 01:38:32;;;;;;;4.57;1.20;;;;;;;;;;5032110;28;20418;-73
2021/10/01 01:41:07;;;;;;;1.70;1.10;;;;;;;;;;5014597;28;20454;-74
2021/10/01 01:43:35;;;;;;;1.50;1.00;;;7.60;1.00;;;;;;5014619;28;20917;-74
2021/10/01 01:46:02;;;;;;;5.43;1.57;;;;;;;;;;5014547;28;20462;-74
2021/10/01 01:48:28;;;;;;;2.90;0.80;;;;;;;;;;5032342;28;20402;-75
2021/10/01 01:51:01;;;;;;;2.33;1.07;;;7.50;1.00;;;;;;5036462;28;20399;-75
2021/10/01 01:53:28;;;;;;;1.80;0.97;;;7.50;1.00;;;;;;5036372;28;20502;-74
2021/10/01 01:55:56;;;;;;;3.03;1.00;;;7.50;1.00;;;;;;5035844;28;20465;-73
2021/10/01 01:58:22;;;;;;;4.03;1.20;;;;;;;;;;5051835;28;20905;-74
2021/10/01 02:00:54;;;;;;;2.07;1.00;;;;;;;;;;5036193;28;20538;-73
2021/10/01 02:03:20;;;;;;;2.40;0.90;;;;;;;;;;5036341;28;20396;-73
2021/10/01 02:05:49;;;;;;;3.57;1.10;;;7.30;1.00;;;;;;5036291;28;20395;-73
2021/10/01 02:08:17;;;;;;;1.97;0.93;;;7.30;1.00;;;;;;5036327;28;20426;-73
2021/10/01 02:10:43;;;;;;;1.37;0.90;;;;;;;;;;5051401;28;20434;-73
2021/10/01 02:13:10;;;;;;;1.50;0.80;;;;;;;;;;5046439;28;20424;-74
2021/10/01 02:15:42;;;;;;;1.93;0.80;;;;;;;;;;5036108;28;20388;-74
2021/10/01 02:18:09;;;;;;;1.50;0.80;;;;;;;;;;5036086;28;20395;-74
2021/10/01 02:20:36;;;;;;;1.67;0.90;;;7.20;1.00;;;;;;5044401;28;20407;-74
2021/10/01 02:23:06;;;;;;;5.53;1.47;;;7.10;1.00;;;;;;5047512;28;20442;-75
2021/10/01 02:28:32;;;;;;;2.53;1.37;;;;;;;;;;5036167;28;20477;-73
2021/10/01 02:31:02;;;;;;;1.77;1.20;;;7.00;1.00;;;;;;5035324;28;20419;-74
2021/10/01 02:33:44;;;;;;;1.03;0.80;;;6.90;1.00;;;;;;5035759;28;20791;-73
2021/10/01 02:36:10;;;;;;;2.93;1.47;;;;;;;;;;5035406;28;20392;-73
2021/10/01 02:38:36;;;;;;;3.30;1.40;;;;;;;;;;5035458;28;20797;-73
2021/10/01 02:41:02;;;;;;;1.93;1.20;;;;;;;;;;5047964;28;20900;-73
2021/10/01 02:43:36;;;;;;;1.90;1.10;;;;;;;;;;5038320;28;20899;-73
2021/10/01 02:46:02;;;;;;;2.10;1.10;;;;;;;;;;5035351;28;20396;-73
2021/10/01 02:48:30;;;;;;;3.10;1.30;;;;;;;;;;5035219;28;20415;-73
2021/10/01 02:51:02;;;;;;;3.83;1.00;;;6.80;1.00;;;;;;5036372;28;20418;-73
2021/10/01 02:53:28;;;;;;;2.50;1.33;;;;;;;;;;5037209;28;20427;-73
2021/10/01 02:56:00;;;;;;;4.10;1.57;;;;;;;;;;5035287;28;20391;-73
2021/10/01 02:58:31;;;;;;;5.00;1.70;;;;;;;;;;5035433;28;20424;-74
2021/10/01 03:01:01;;;;;;;2.60;1.27;;;6.70;1.00;;;;;;5039957;28;20454;-74
2021/10/01 03:03:31;;;;;;;1.20;1.20;;;6.60;1.00;;;;;;5054807;28;20425;-74
2021/10/01 03:06:01;;;;;;;3.63;1.37;;;6.60;1.00;;;;;;5055046;28;20399;-74
2021/10/01 03:08:31;;;;;;;1.43;1.20;;;6.50;1.00;;;;;;5054961;28;21054;-74
2021/10/01 03:10:58;;;;;;;8.53;1.93;;;;;;;;;;5064158;28;20469;-74
2021/10/01 03:13:26;;;;;;;1.60;1.43;;;6.50;1.00;;;;;;5052066;28;20500;-73
2021/10/01 03:15:56;;;;;;;2.83;1.20;;;6.50;1.00;;;;;;5034701;28;20744;-73
2021/10/01 03:18:23;;;;;;;7.53;1.70;;;6.50;1.00;;;;;;5034689;28;20408;-73
2021/10/01 03:20:50;;;;;;;6.73;1.97;;;;;;;;;;5036428;28;20407;-73
2021/10/01 03:23:19;;;;;;;2.37;1.20;;;6.50;1.00;;;;;;5034528;28;20890;-73
2021/10/01 03:25:45;;;;;;;5.67;1.20;;;;;;;;;;5034718;28;20399;-73
2021/10/01 03:28:12;;;;;;;1.20;1.00;;;;;;;;;;5035000;28;20855;-74
2021/10/01 03:30:40;;;;;;;1.37;1.20;;;;;;;;;;5050701;28;20497;-74
2021/10/01 03:33:06;;;;;;;3.50;1.60;;;;;;;;;;5037657;28;20465;-74
2021/10/01 03:35:33;;;;;;;8.93;2.03;;;6.50;1.00;;;;;;5035081;28;20507;-74
2021/10/01 03:37:59;;;;;;;3.03;1.70;;;;;;;;;;5054468;28;20405;-74
2021/10/01 03:40:31;;;;;;;7.77;1.60;;;6.50;1.00;;;;;;5054077;28;20391;-74
2021/10/01 03:42:57;;;;;;;4.90;1.57;;;;;;;;;;5051708;28;20422;-74
2021/10/01 03:45:24;;;;;;;4.37;1.60;;;;;;;;;;5053485;28;20421;-74
2021/10/01 03:47:50;;;;;;;3.50;2.03;;;;;;;;;;5054315;28;20406;-74
2021/10/01 03:50:16;;;;;;;2.07;1.73;;;;;;;;;;5053007;28;20399;-74
2021/10/01 03:52:48;;;;;;;1.47;1.33;;;;;;;;;;5046620;28;20828;-74
2021/10/01 03:55:21;;;;;;;12.43;1.80;;;;;;;;;;5054112;28;20858;-74
2021/10/01 03:57:49;;;;;;;2.23;1.30;;;6.30;1.00;;;;;;5066677;28;20418;-73
2021/10/01 04:00:18;;;;;;;1.67;1.20;;;;;;;;;;5074012;28;20406;-74
2021/10/01 04:02:44;;;;;;;6.13;1.43;;;;;;;;;;5059023;28;20447;-73
2021/10/01 04:05:11;;;;;;;1.60;1.40;;;;;;;;;;5034150;28;20423;-73
2021/10/01 04:07:48;;;;;;;3.10;1.53;;;;;;;;;;5040048;28;20900;-73
2021/10/01 04:10:14;;;;;;;1.67;1.47;;;;;;;;;;5034046;28;20474;-73
2021/10/01 04:12:41;;;;;;;2.03;1.47;;;;;;;;;;5039468;28;20460;-73
2021/10/01 04:15:12;;;;;;;3.00;2.00;;;;;;;;;;5053893;28;20805;-73
2021/10/01 04:17:42;;;;;;;1.40;1.30;;;;;;;;;;5052939;28;20418;-73
2021/10/01 04:20:08;;;;;;;2.80;1.70;;;;;;;;;;5053658;28;20401;-74
2021/10/01 04:22:36;;;;;;;5.90;2.10;;;;;;;;;;5052432;28;20450;-73
2021/10/01 04:25:02;;;;;;;4.13;1.73;;;;;;;;;;5033833;28;20450;-73
2021/10/01 04:27:30;;;;;;;3.97;1.70;;;;;;;;;;5046961;28;20410;-74
2021/10/01 04:30:00;;;;;;;1.83;1.00;;;;;;;;;;5053789;28;20395;-74
2021/10/01 04:32:26;;;;;;;2.13;1.87;;;;;;;;;;5052465;28;20424;-74
2021/10/01 04:35:10;;;;;;;10.00;2.73;;;;;;;;;;5038592;28;20844;-74
2021/10/01 04:37:36;;;;;;;2.43;1.90;;;;;;;;;;5033654;28;20758;-74
2021/10/01 04:40:06;;;;;;;3.23;1.50;;;;;;;;;;5032297;28;20395;-74
2021/10/01 04:42:32;;;;;;;1.97;1.30;;;;;;;;;;5033836;28;20442;-74
2021/10/01 04:44:58;;;;;;;5.70;1.30;;;;;;;;;;5033454;28;20816;-73
2021/10/01 04:47:24;;;;;;;2.40;1.53;;;;;;;;;;5033519;28;20557;-73
2021/10/01 04:49:50;;;;;;;4.63;1.33;;;;;;;;;;5032277;28;20766;-73
2021/10/01 04:52:18;;;;;;;3.63;1.30;;;;;;;;;;5033493;28;20863;-73
2021/10/01 04:54:44;;;;;;;4.73;1.80;;;;;;;;;;5032111;28;20418;-73
2021/10/01 04:57:10;;;;;;;2.80;1.50;;;;;;;;;;5033589;28;20458;-73
2021/10/01 04:59:37;;;;;;;2.13;1.53;;;;;;;;;;5033959;28;20387;-74
2021/10/01 05:02:03;;;;;;;1.43;1.30;;;;;;;;;;5033447;28;20450;-73
2021/10/01 05:04:29;;;;;;;8.90;1.17;;;;;;;;;;5033358;28;20419;-73
2021/10/01 05:06:55;;;;;;;9.03;2.40;;;;;;;;;;5033267;28;20522;-73
2021/10/01 05:09:24;;;;;;;2.10;1.17;;;;;;;;;;5033477;28;20476;-73
2021/10/01 05:11:54;;;;;;;3.97;1.90;;;;;;;;;;5032989;28;20464;-73
2021/10/01 05:14:20;;;;;;;3.33;1.90;;;;;;;;;;5032849;28;20426;-74
2021/10/01 05:16:54;;;;;;;9.77;2.10;;;;;;;;;;5046829;28;20426;-78
2021/10/01 05:19:20;;;;;;;3.50;1.77;;;;;;;;;;5032933;28;20688;-73
2021/10/01 05:21:46;;;;;;;25.37;3.60;;;;;;;;;;5034393;28;21003;-73
2021/10/01 05:24:14;;;;;;;16.30;2.03;;;;;;;;;;5049646;28;20510;-73
2021/10/01 05:26:42;;;;;;;3.90;1.20;;;6.20;1.00;;;;;;5051694;28;20505;-73
2021/10/01 05:29:18;;;;;;;5.53;1.60;;;;;;;;;;5053428;28;20773;-75
2021/10/01 05:31:44;;;;;;;1.37;1.27;;;;;;;;;;5042284;28;20922;-74
2021/10/01 05:34:10;;;;;;;4.00;1.57;;;;;;;;;;5051879;28;20421;-74
2021/10/01 05:36:36;;;;;;;2.40;1.80;;;;;;;;;;5039310;28;20433;-74
2021/10/01 05:39:06;;;;;;;3.17;1.43;;;;;;;;;;5055589;28;20410;-74
2021/10/01 05:41:32;;;;;;;1.87;1.40;;;;;;;;;;5036290;28;20950;-75
2021/10/01 05:43:58;;;;;;;3.10;1.53;;;;;;;;;;5036792;28;20790;-73
2021/10/01 05:46:30;;;;;;;4.47;1.80;;;;;;;;;;5036374;28;20461;-73
2021/10/01 05:48:59;;;;;;;3.27;1.67;;;;;;;;;;5036421;28;20754;-73
2021/10/01 05:51:27;;;;;;;2.00;1.60;;;;;;;;;;5036159;28;20423;-73
2021/10/01 05:56:42;;;;;;;3.93;1.60;;;;;;;;;;5036454;28;20909;-78
2021/10/01 05:59:08;;;;;;;3.00;1.70;;;;;;;;;;5037193;28;20430;-74
2021/10/01 06:01:36;;;;;;;2.03;1.67;;;;;;;;;;5039190;28;20466;-73
2021/10/01 06:04:12;;;;;;;3.87;2.17;;;;;;;;;;5035976;28;20424;-73
2021/10/01 06:06:38;;;;;;;5.23;1.90;;;;;;;;;;5036103;28;20384;-73
2021/10/01 06:09:10;;;;;;;2.70;1.80;;;;;;;;;;5047341;28;20456;-73
2021/10/01 06:11:37;;;;;;;3.03;1.87;;;6.90;1.00;;;;;;5040424;28;20755;-73
2021/10/01 06:14:07;;;;;;;7.10;1.60;;;6.90;1.00;;;;;;5036251;28;20434;-73
2021/10/01 06:16:36;;;;;;;5.33;1.40;;;;;;;;;;5036089;28;20387;-74
2021/10/01 06:19:06;;;;;;;7.03;1.70;;;;;;;;;;5039225;28;20469;-73
2021/10/01 06:21:36;;;;;;;9.73;1.83;;;;;;;;;;5046477;28;20558;-73
2021/10/01 06:24:02;;;;;;;1.83;1.53;;;;;;;;;;5051440;28;20410;-74
2021/10/01 06:26:36;;;;;;;1.87;1.53;;;;;;;;;;5057505;28;21067;-73
2021/10/01 06:29:18;;;;;;;4.73;1.20;;;;;;;;;;5053737;28;20529;-75
2021/10/01 06:31:45;;;;;;;4.07;1.03;;;;;;;;;;5055765;28;20427;-74
2021/10/01 06:34:12;;;;;;;2.37;1.20;;;;;;;;;;5058439;28;20439;-73
2021/10/01 06:36:38;;;;;;;2.50;1.10;;;;;;;;;;5043759;28;20435;-73
2021/10/01 06:39:07;;;;;;;5.60;1.40;;;8.10;1.00;;;;;;5035602;28;20395;-73
2021/10/01 06:41:34;;;;;;;1.47;1.07;;;;;;;;;;5052988;28;20522;-73
2021/10/01 06:44:03;;;;;;;1.47;0.90;;;8.30;1.00;;;;;;5057148;28;20494;-73
2021/10/01 06:49:39;;;;;;;15.33;2.23;;;;;;;;;;5012054;28;20408;-74
2021/10/01 07:23:20;;;;;;;4.00;1.60;;;;;;;;;;5012604;28;20877;-74
2021/10/01 08:20:59;;;;;;;12.70;2.40;;;;;;;;;;5041655;28;20535;-74
2021/10/01 08:23:30;;;;;;;3.90;2.80;;;;;;;;;;5035468;28;20442;-75
2021/10/01 08:25:56;;;;;;;6.07;3.17;;;;;;;;;;5037524;28;20508;-74
2021/10/01 08:28:30;;;;;;;3.60;2.40;;;;;;;;;;5053701;28;20385;-74
2021/10/01 08:30:57;;;;;;;6.93;2.63;;;;;;;;;;5039760;28;20518;-73
2021/10/01 08:33:23;;;;;;;3.83;2.37;;;;;;;;;;5050228;28;20405;-73
2021/10/01 08:35:54;;;;;;;6.50;2.80;;;;;;;;;;5051020;28;20944;-73
2021/10/01 08:38:20;;;;;;;6.73;2.60;;;;;;;;;;5053337;28;20407;-73
2021/10/01 08:40:48;;;;;;;7.90;2.50;;;;;;;;;;5064934;28;20873;-73
2021/10/01 08:43:14;;;;;;;13.80;3.00;;;;;;;;;;5047895;28;20429;-73
2021/10/01 08:45:40;;;;;;;4.90;2.40;;;;;;;;;;5033264;28;20937;-74
2021/10/01 08:48:06;;;;;;;3.53;1.90;;;12.80;1.00;;;;;;5052368;28;20499;-75
2021/10/01 08:50:32;;;;;;;4.30;2.27;;;;;;;;;;5041041;28;20436;-74
2021/10/01 08:53:04;;;;;;;7.10;2.43;;;;;;;;;;5036471;28;20498;-74
2021/10/01 08:55:30;;;;;;;5.30;2.30;;;;;;;;;;5031059;28;20430;-77
2021/10/01 08:57:56;;;;;;;7.43;2.57;;;;;;;;;;5032050;28;20423;-78
2021/10/01 09:00:22;;;;;;;4.13;2.50;;;;;;;;;;5039347;28;20863;-78
2021/10/01 09:03:06;;;;;;;9.17;2.50;;;;;;;;;;5033452;28;20524;-79
2021/10/01 09:05:48;;;;;;;11.77;3.03;;;;;;;;;;5054641;28;20880;-79
2021/10/01 09:08:17;;;;;;;13.13;2.40;;;13.40;1.00;;;;;;5039544;28;20421;-79
2021/10/01 09:11:05;;;;;;;3.27;1.87;;;13.40;1.00;;;;;;5042725;28;20908;-78
2021/10/01 09:13:42;;;;;;;2.67;1.90;;;13.50;1.00;;;;;;5045611;28;20509;-78
2021/10/01 09:16:13;;;;;;;4.87;1.67;;;13.60;1.00;;;;;;5054445;28;20421;-78
2021/10/01 09:18:42;;;;;;;8.37;2.23;;;;;;;;;;5055385;28;20816;-74
2021/10/01 09:21:14;;;;;;;3.13;1.37;;;13.80;1.00;;;;;;5056578;28;20452;-73
2021/10/01 09:23:43;;;;;;;3.03;1.30;;;13.80;1.00;;;;;;5055859;28;20950;-73
2021/10/01 09:26:18;;;;;;;5.13;1.60;;;13.90;1.00;;;;;;5055890;28;20399;-73
2021/10/01 09:28:45;;;;;;;7.77;2.33;;;;;;;;;;5055703;28;20409;-74
2021/10/01 09:31:28;;;;;;;2.93;1.40;;;14.10;1.00;;;;;;5054653;28;20774;-73
2021/10/01 09:33:54;;;;;;;5.40;1.67;;;;;;;;;;5055735;28;20418;-74
2021/10/01 09:36:20;;;;;;;1.37;1.07;;;;;;;;;;5054156;28;20729;-74
2021/10/01 09:38:48;;;;;;;3.70;1.60;;;;;;;;;;5054453;28;20406;-74
2021/10/01 09:41:15;;;;;;;5.43;1.47;;;;;;;;;;5055240;28;20458;-74
2021/10/01 09:43:41;;;;;;;40.80;4.23;;;;;;;;;;5052524;28;20426;-74
2021/10/01 09:46:12;;;;;;;6.60;1.50;;;14.40;1.00;;;;;;5055811;28;20401;-73
2021/10/01 09:48:39;;;;;;;6.13;1.87;;;14.50;1.00;;;;;;5055367;28;20426;-73
2021/10/01 09:51:18;;;;;;;4.87;1.60;;;14.50;1.00;;;;;;5053083;28;20441;-73
2021/10/01 09:53:45;;;;;;;2.30;1.67;;;;;;;;;;5055169;28;20417;-73
2021/10/01 09:56:22;;;;;;;3.10;1.50;;;14.70;1.00;;;;;;5041363;28;20772;-74
2021/10/01 09:59:07;;;;;;;4.47;1.80;;;;;;;;;;5033395;28;21038;-74
2021/10/01 10:01:34;;;;;;;1.37;1.07;;;14.90;1.00;;;;;;5034523;28;20478;-74
2021/10/01 10:04:13;;;;;;;2.27;1.30;;;;;;;;;;5039295;28;20422;-74
2021/10/01 10:06:45;;;;;;;2.80;1.30;;;;;;;;;;5050688;28;20425;-74
2021/10/01 10:09:12;;;;;;;3.20;1.40;;;;;;;;;;5055189;28;20879;-73
2021/10/01 10:11:40;;;;;;;3.00;1.47;;;15.30;1.00;;;;;;5052479;28;20945;-74
2021/10/01 10:14:12;;;;;;;2.40;1.30;;;15.40;1.00;;;;;;5055028;28;20365;-74
2021/10/01 10:16:39;;;;;;;9.03;1.70;;;15.40;1.00;;;;;;5054589;28;20873;-74
2021/10/01 10:19:08;;;;;;;7.70;2.10;;;15.60;1.00;;;;;;5051911;28;20778;-74
2021/10/01 10:21:35;;;;;;;1.43;1.20;;;15.60;1.00;;;;;;5042586;28;20591;-74
2021/10/01 10:24:02;;;;;;;58.80;6.70;;;;;;;;;;5051766;28;20393;-73
2021/10/01 10:26:28;;;;;;;3.33;1.40;;;;;;;;;;5037700;28;20412;-73
2021/10/01 10:28:59;;;;;;;3.23;1.70;;;15.80;1.00;;;;;;5052467;28;20393;-73
2021/10/01 10:31:32;;;;;;;5.80;1.57;;;16.00;1.00;;;;;;5052602;28;20406;-73
2021/10/01 10:33:58;;;;;;;11.67;1.77;;;16.00;1.00;;;;;;5043627;28;20397;-73
2021/10/01 10:36:26;;;;;;;4.27;1.67;;;;;;;;;;5053752;28;20521;-73
2021/10/01 10:38:53;;;;;;;4.80;1.70;;;;;;;;;;5051095;28;20689;-80
2021/10/01 10:41:23;;;;;;;6.37;1.70;;;;;;;;;;5034458;28;20513;-80
2021/10/01 10:43:49;;;;;;;1.93;1.30;;;;;;;;;;5038323;28;20485;-77
2021/10/01 10:46:37;;;;;;;2.60;1.40;;;16.40;1.00;;;;;;5052858;28;20445;-79
2021/10/01 10:49:15;;;;;;;3.30;1.40;;;16.40;1.00;;;;;;5038888;28;20397;-79
2021/10/01 10:52:15;;;;;;;7.60;1.73;;;16.60;1.00;;;;;;5038518;28;20406;-81
2021/10/01 10:55:29;;;;;;;2.20;1.07;;;16.70;1.00;;;;;;5035077;28;20526;-84
2021/10/01 11:01:21;;;;;;;4.20;1.77;;;;;;;;;;5041293;28;20483;-79
2021/10/01 11:03:51;;;;;;;1.80;0.93;;;16.90;1.00;;;;;;5054814;28;20387;-79
2021/10/01 11:06:36;;;;;;;1.43;0.90;;;17.00;1.00;;;;;;5045732;28;21031;-78
2021/10/01 11:09:16;;;;;;;2.30;1.10;;;;;;;;;;5033522;28;20423;-78
2021/10/01 11:11:58;;;;;;;2.60;1.27;;;;;;;;;;5034365;28;20460;-78
2021/10/01 11:15:17;;;;;;;1.17;0.83;;;17.30;1.00;;;;;;5033464;28;20484;-78
2021/10/01 11:18:22;;;;;;;2.30;1.10;;;17.30;1.00;;;;;;5034967;28;20432;-78
2021/10/01 11:20:49;;;;;;;2.07;1.10;;;;;;;;;;5034465;28;20400;-78
2021/10/01 11:23:59;;;;;;;4.10;1.10;;;17.60;1.00;;;;;;5043844;28;20955;-78
2021/10/01 11:26:36;;;;;;;2.53;1.03;;;17.60;1.00;;;;;;5054505;28;20401;-77
2021/10/01 11:29:18;;;;;;;7.93;1.37;;;17.60;1.00;;;;;;5039226;28;20443;-78
2021/10/01 11:32:17;;;;;;;1.57;1.03;;;;;;;;;;5046728;28;20409;-80
2021/10/01 11:38:30;;;;;;;7.13;1.30;;;17.80;1.00;;;;;;5033990;28;20850;-82
2021/10/01 11:41:11;;;;;;;1.47;0.90;;;17.90;1.00;;;;;;5034372;28;20409;-73
2021/10/01 11:43:51;;;;;;;4.00;1.13;;;17.90;1.00;;;;;;5034197;28;20516;-73
2021/10/01 11:46:48;;;;;;;6.90;1.27;;;18.00;1.00;;;;;;5043998;28;20475;-74
2021/10/01 11:49:29;;;;;;;66.80;5.70;;;18.10;1.00;;;;;;5051478;28;20391;-75
2021/10/01 11:52:05;;;;;;;10.43;1.90;;;18.20;1.00;;;;;;5055107;28;20382;-74
2021/10/01 11:54:37;;;;;;;4.27;1.13;;;;;;;;;;5053995;28;20398;-76
2021/10/01 11:57:08;;;;;;;7.63;1.30;;;18.40;1.00;;;;;;5060072;28;20372;-75
2021/10/01 11:59:54;;;;;;;8.90;1.63;;;;;;;;;;5048405;28;20397;-75
2021/10/01 12:02:30;;;;;;;6.20;1.40;;;;;;;;;;5031863;28;20844;-73
2021/10/01 12:04:56;;;;;;;5.10;1.40;;;;;;;;;;5053634;28;20404;-73
2021/10/01 12:07:22;;;;;;;7.23;1.27;;;;;;;;;;5052205;28;20798;-73
2021/10/01 12:10:05;;;;;;;1.33;0.77;;;18.70;1.00;;;;;;5047877;28;20436;-74
2021/10/01 12:12:31;;;;;;;2.83;1.10;;;18.70;1.00;;;;;;5033266;28;20490;-74
2021/10/01 12:14:57;;;;;;;3.07;1.30;;;;;;;;;;5033844;28;20403;-73
2021/10/01 12:17:23;;;;;;;1.10;0.70;;;;;;;;;;5034042;28;20170;-73
2021/10/01 12:20:11;;;;;;;12.27;1.50;;;18.90;1.00;;;;;;5032394;28;20821;-73
2021/10/01 12:22:37;;;;;;;3.43;1.20;;;;;;;;;;5035528;28;20774;-73
2021/10/01 12:25:06;;;;;;;1.13;0.70;;;;;;;;;;5051179;28;20562;-73
2021/10/01 12:27:39;;;;;;;1.63;0.80;;;19.20;1.00;;;;;;5039006;28;20891;-73
2021/10/01 12:30:06;;;;;;;2.20;0.87;;;;;;;;;;5033439;28;20411;-73
2021/10/01 12:32:48;;;;;;;3.60;1.07;;;;;;;;;;5034165;28;20438;-75
2021/10/01 12:35:15;;;;;;;2.93;0.87;;;;;;;;;;5032320;28;20959;-75
2021/10/01 12:37:48;;;;;;;3.23;1.03;;;;;;;;;;5033768;28;20754;-75
2021/10/01 12:40:14;;;;;;;4.83;1.13;;;;;;;;;;5036267;28;20419;-75
2021/10/01 12:42:54;;;;;;;3.13;0.97;;;;;;;;;;5037464;28;20481;-75
2021/10/01 12:45:21;;;;;;;1.40;0.97;;;;;;;;;;5037717;28;20402;-75
2021/10/01 12:47:50;;;;;;;1.73;0.90;;;19.60;1.00;;;;;;5037786;28;20373;-73
2021/10/01 12:50:33;;;;;;;3.70;1.20;;;19.70;1.00;;;;;;5037585;28;21136;-73
2021/10/01 12:53:00;;;;;;;5.63;1.43;;;;;;;;;;5057326;28;20397;-73
2021/10/01 12:55:29;;;;;;;2.23;1.00;;;19.60;1.00;;;;;;5057397;28;20399;-73
2021/10/01 12:57:55;;;;;;;2.87;1.10;;;;;;;;;;5056503;28;20453;-73
2021/10/01 13:00:27;;;;;;;3.10;1.27;;;19.80;1.00;;;;;;5053302;28;20417;-73
2021/10/01 13:03:20;;;;;;;1.43;0.77;;;;;;;;;;5037690;28;20995;-75
2021/10/01 13:05:47;;;;;;;3.60;0.90;;;;;;;;;;5036407;28;20419;-75
2021/10/01 13:08:24;;;;;;;1.10;1.00;;;;;;;;;;5037487;28;20395;-75
2021/10/01 13:10:59;;;;;;;1.90;1.00;;;20.00;1.00;;;;;;5037396;28;20515;-75
2021/10/01 13:13:28;;;;;;;4.83;1.10;;;20.10;1.00;;;;;;5037316;28;20439;-75
2021/10/01 13:16:03;;;;;;;3.10;1.10;;;20.10;1.00;;;;;;5038558;28;20943;-75
2021/10/01 13:18:32;;;;;;;4.43;1.17;;;20.00;1.00;;;;;;5048301;28;20890;-75
2021/10/01 13:21:21;;;;;;;77.87;6.73;;;20.00;1.00;;;;;;5053590;28;20891;-77
2021/10/01 13:24:01;;;;;;;0.90;0.80;;;20.10;1.00;;;;;;5043614;28;20426;-76
2021/10/01 13:26:42;;;;;;;3.03;0.80;;;;;;;;;;5054641;28;20880;-78
2021/10/01 13:29:24;;;;;;;1.80;1.00;;;;;;;;;;5045809;28;20462;-77
2021/10/01 13:31:53;;;;;;;1.90;0.83;;;;;;;;;;5049379;28;20492;-75
2021/10/01 13:34:26;;;;;;;12.67;1.57;;;20.30;1.00;;;;;;5041788;28;20423;-75
2021/10/01 13:37:06;;;;;;;7.70;1.50;;;;;;;;;;5042944;28;20910;-75
2021/10/01 13:39:48;;;;;;;2.83;0.67;;;;;;;;;;5036907;28;20524;-74
2021/10/01 13:42:18;;;;;;;1.13;0.80;;;;;;;;;;5036421;28;20969;-79
2021/10/01 13:44:44;;;;;;;3.63;0.90;;;;;;;;;;5036532;28;20399;-77
2021/10/01 13:47:12;;;;;;;0.70;0.70;;;;;;;;;;5036809;28;20384;-79
2021/10/01 13:49:48;;;;;;;7.10;0.80;;;;;;;;;;5047387;28;20401;-78
2021/10/01 13:52:35;;;;;;;3.70;0.97;;;;;;;;;;5051604;28;20874;-79
2021/10/01 13:55:13;;;;;;;3.33;1.17;;;20.40;1.00;;;;;;5036374;28;20417;-79
2021/10/01 13:58:05;;;;;;;8.70;1.17;;;20.30;1.00;;;;;;5034999;28;20429;-79
2021/10/01 14:00:32;;;;;;;2.37;0.80;;;;;;;;;;5037186;28;20424;-79
2021/10/01 14:03:00;;;;;;;3.13;0.70;;;;;;;;;;5036581;28;20443;-80
2021/10/01 14:05:36;;;;;;;0.80;0.60;;;;;;;;;;5036038;28;20406;-81
2021/10/01 14:08:23;;;;;;;2.90;0.80;;;;;;;;;;5036305;28;20839;-80
2021/10/01 14:11:23;;;;;;;14.67;1.50;;;;;;;;;;5036169;28;20947;-80
2021/10/01 14:13:56;;;;;;;11.43;1.13;;;;;;;;;;5035920;28;20431;-80
2021/10/01 14:16:33;;;;;;;3.27;1.00;;;;;;;;;;5035921;28;20416;-80
2021/10/01 14:19:00;;;;;;;1.00;0.90;;;;;;;;;;5035990;28;20416;-79
2021/10/01 14:21:59;;;;;;;3.80;1.03;;;20.60;99.90;;;;;;5035641;28;20451;-81
2021/10/01 14:24:25;;;;;;;2.70;1.00;;;;;;;;;;5050678;28;20407;-79
2021/10/01 14:26:51;;;;;;;1.90;1.10;;;;;;;;;;5054068;28;20415;-74
2021/10/01 14:29:17;;;;;;;4.03;1.00;;;;;;;;;;5054427;28;20420;-72
2021/10/01 14:31:43;;;;;;;3.20;0.80;;;;;;;;;;5075430;28;20742;-72
2021/10/01 14:34:10;;;;;;;4.87;1.10;;;;;;;;;;5075732;28;20416;-74
2021/10/01 14:36:36;;;;;;;1.43;0.80;;;;;;;;;;5075322;28;20744;-74
2021/10/01 14:39:03;;;;;;;1.00;0.70;;;;;;;;;;5060475;28;20520;-75
2021/10/01 14:41:29;;;;;;;2.30;1.00;;;;;;;;;;5035394;28;20451;-71
2021/10/01 14:43:55;;;;;;;9.90;1.37;;;;;;;;;;5036425;28;20883;-74
2021/10/01 14:46:28;;;;;;;2.50;0.87;;;;;;;;;;5054933;28;20423;-79
2021/10/01 14:48:54;;;;;;;3.30;1.10;;;;;;;;;;5037186;28;20558;-73
2021/10/01 14:51:21;;;;;;;13.07;0.93;;;;;;;;;;5035375;28;20427;-73
2021/10/01 14:53:47;;;;;;;1.50;0.90;;;;;;;;;;5035174;28;20781;-73
2021/10/01 14:56:18;;;;;;;6.53;1.00;;;;;;;;;;5033933;28;20796;-73
2021/10/01 14:58:45;;;;;;;6.13;1.00;;;;;;;;;;5035180;28;20491;-73
2021/10/01 15:01:11;;;;;;;2.57;0.90;;;;;;;;;;5034882;28;20416;-73
2021/10/01 15:03:37;;;;;;;3.60;1.03;;;;;;;;;;5033823;28;20404;-73
2021/10/01 15:06:03;;;;;;;8.00;1.20;;;;;;;;;;5045265;28;20403;-73
2021/10/01 15:08:30;;;;;;;2.40;1.00;;;;;;;;;;5053662;28;20434;-73
2021/10/01 15:10:58;;;;;;;4.50;1.00;;;20.90;99.90;;;;;;5053487;28;20435;-73
2021/10/01 15:13:24;;;;;;;2.03;0.83;;;;;;;;;;5054766;28;20442;-73
2021/10/01 15:15:50;;;;;;;3.17;1.00;;;;;;;;;;5045105;28;20429;-73
2021/10/01 15:18:16;;;;;;;2.07;0.83;;;;;;;;;;5042566;28;20404;-73
2021/10/01 15:20:43;;;;;;;2.00;0.90;;;;;;;;;;5040914;28;20409;-75
2021/10/01 15:23:09;;;;;;;2.17;1.10;;;22.00;99.90;;;;;;5040300;28;20460;-75
2021/10/01 15:25:39;;;;;;;2.30;1.20;;;;;;;;;;5054365;28;20423;-75
2021/10/01 15:28:06;;;;;;;2.70;0.83;;;23.10;99.90;;;;;;5039761;28;20416;-75
2021/10/01 15:30:42;;;;;;;2.37;1.17;;;23.80;99.90;;;;;;5042167;28;20474;-74
2021/10/01 15:33:12;;;;;;;2.30;0.90;;;;;;;;;;5054299;28;20400;-74
2021/10/01 15:35:38;;;;;;;4.87;0.70;;;;;;;;;;5053197;28;20409;-73
2021/10/01 15:38:05;;;;;;;2.93;1.20;;;;;;;;;;5054311;28;20397;-73
2021/10/01 15:40:33;;;;;;;5.43;1.17;;;23.50;99.90;;;;;;5045056;28;20895;-73
2021/10/01 15:43:00;;;;;;;2.63;0.97;;;;;;;;;;5034253;28;20444;-73
2021/10/01 15:45:26;;;;;;;1.50;0.80;;;;;;;;;;5032898;28;20425;-73
2021/10/01 15:47:53;;;;;;;1.97;1.00;;;;;;;;;;5033995;28;20867;-73
2021/10/01 15:50:20;;;;;;;2.13;1.10;;;21.90;99.90;;;;;;5036786;28;20416;-74
2021/10/01 15:52:48;;;;;;;2.80;1.43;;;21.50;99.90;;;;;;5053977;28;20428;-74
2021/10/01 15:55:18;;;;;;;2.40;1.27;;;;;;;;;;5054136;28;20428;-74
2021/10/01 15:57:45;;;;;;;1.57;0.90;;;20.90;1.00;;;;;;5054080;28;20875;-75
2021/10/01 16:00:12;;;;;;;2.50;0.90;;;;;;;;;;5051042;28;20430;-74
2021/10/01 16:02:38;;;;;;;1.87;0.80;;;20.20;1.00;;;;;;5034130;28;20452;-74
2021/10/01 16:05:05;;;;;;;4.17;1.30;;;;;;;;;;5034106;28;20464;-73
2021/10/01 16:07:32;;;;;;;1.10;0.80;;;;;;;;;;5033865;28;20391;-73
2021/10/01 16:09:58;;;;;;;3.30;1.50;;;;;;;;;;5031812;28;20823;-73
2021/10/01 16:12:24;;;;;;;6.83;1.10;;;;;;;;;;5032739;28;20755;-73
2021/10/01 16:14:50;;;;;;;1.83;0.87;;;;;;;;;;5032098;28;20429;-73